sensor_id;sensor_type;location;lat;lon;timestamp;P1;durP1;ratioP1;P2;durP2;ratioP2
23617;SDS011;18207;32.078;34.818;2022-08-19T00:01:38;2.15;;;2.05;;
23617;SDS011;18207;32.078;34.818;2022-08-19T00:04:20;2.05;;;1.95;;
23617;SDS011;18207;32.078;34.818;2022-08-19T00:06:54;2.20;;;2.10;;
23617;SDS011;18207;32.078;34.818;2022-08-19T00:09:25;2.20;;;2.10;;
23617;SDS011;18207;32.078;34.818;2022-08-19T00:11:57;1.92;;;1.83;;
23617;SDS011;18207;32.078;34.818;2022-08-19T00:14:30;2.00;;;1.90;;
23617;SDS011;18207;32.078;34.818;2022-08-19T00:17:01;1.92;;;1.83;;
23617;SDS011;18207;32.078;34.818;2022-08-19T00:19:33;2.28;;;2.17;;
23617;SDS011;18207;32.078;34.818;2022-08-19T00:22:05;2.17;;;2.08;;
23617;SDS011;18207;32.078;34.818;2022-08-19T00:24:35;2.10;;;2.00;;
23617;SDS011;18207;32.078;34.818;2022-08-19T00:27:16;1.88;;;1.77;;
23617;SDS011;18207;32.078;34.818;2022-08-19T00:29:54;1.88;;;1.77;;
23617;SDS011;18207;32.078;34.818;2022-08-19T00:32:25;2.00;;;1.90;;
23617;SDS011;18207;32.078;34.818;2022-08-19T00:34:57;2.05;;;1.95;;
23617;SDS011;18207;32.078;34.818;2022-08-19T00:37:28;2.60;;;1.98;;
23617;SDS011;18207;32.078;34.818;2022-08-19T00:40:00;1.90;;;1.80;;
23617;SDS011;18207;32.078;34.818;2022-08-19T00:42:33;1.63;;;1.60;;
23617;SDS011;18207;32.078;34.818;2022-08-19T00:45:08;1.85;;;1.75;;
23617;SDS011;18207;32.078;34.818;2022-08-19T00:47:43;2.15;;;1.95;;
23617;SDS011;18207;32.078;34.818;2022-08-19T00:50:16;1.92;;;1.83;;
23617;SDS011;18207;32.078;34.818;2022-08-19T00:52:50;1.83;;;1.73;;
23617;SDS011;18207;32.078;34.818;2022-08-19T00:55:24;2.00;;;1.90;;
23617;SDS011;18207;32.078;34.818;2022-08-19T00:57:58;1.95;;;1.85;;
23617;SDS011;18207;32.078;34.818;2022-08-19T01:00:35;1.90;;;1.80;;
23617;SDS011;18207;32.078;34.818;2022-08-19T01:03:09;1.90;;;1.80;;
23617;SDS011;18207;32.078;34.818;2022-08-19T01:05:45;2.03;;;1.92;;
23617;SDS011;18207;32.078;34.818;2022-08-19T01:08:18;1.95;;;1.85;;
23617;SDS011;18207;32.078;34.818;2022-08-19T01:10:52;1.90;;;1.80;;
23617;SDS011;18207;32.078;34.818;2022-08-19T01:13:29;1.90;;;1.80;;
23617;SDS011;18207;32.078;34.818;2022-08-19T01:16:17;2.00;;;1.90;;
23617;SDS011;18207;32.078;34.818;2022-08-19T01:18:53;2.10;;;2.00;;
23617;SDS011;18207;32.078;34.818;2022-08-19T01:21:26;2.10;;;2.00;;
23617;SDS011;18207;32.078;34.818;2022-08-19T01:24:05;2.00;;;1.90;;
23617;SDS011;18207;32.078;34.818;2022-08-19T01:26:38;2.30;;;2.10;;
23617;SDS011;18207;32.078;34.818;2022-08-19T01:29:12;1.90;;;1.80;;
23617;SDS011;18207;32.078;34.818;2022-08-19T01:31:45;2.15;;;2.05;;
23617;SDS011;18207;32.078;34.818;2022-08-19T01:34:19;2.28;;;2.10;;
23617;SDS011;18207;32.078;34.818;2022-08-19T01:36:50;2.15;;;2.05;;
23617;SDS011;18207;32.078;34.818;2022-08-19T01:39:23;2.17;;;2.08;;
23617;SDS011;18207;32.078;34.818;2022-08-19T01:41:56;1.95;;;1.85;;
23617;SDS011;18207;32.078;34.818;2022-08-19T01:44:30;1.90;;;1.80;;
23617;SDS011;18207;32.078;34.818;2022-08-19T01:47:02;2.08;;;1.98;;
23617;SDS011;18207;32.078;34.818;2022-08-19T01:49:34;2.10;;;2.00;;
23617;SDS011;18207;32.078;34.818;2022-08-19T01:52:05;2.20;;;2.10;;
23617;SDS011;18207;32.078;34.818;2022-08-19T01:54:39;2.30;;;2.10;;
23617;SDS011;18207;32.078;34.818;2022-08-19T01:57:10;2.10;;;2.00;;
23617;SDS011;18207;32.078;34.818;2022-08-19T01:59:43;2.20;;;2.05;;
23617;SDS011;18207;32.078;34.818;2022-08-19T02:02:16;2.15;;;2.05;;
23617;SDS011;18207;32.078;34.818;2022-08-19T02:04:46;2.13;;;2.03;;
23617;SDS011;18207;32.078;34.818;2022-08-19T02:07:18;2.05;;;1.92;;
23617;SDS011;18207;32.078;34.818;2022-08-19T02:09:51;2.22;;;2.13;;
23617;SDS011;18207;32.078;34.818;2022-08-19T02:12:22;1.90;;;1.80;;
23617;SDS011;18207;32.078;34.818;2022-08-19T02:14:53;2.47;;;2.28;;
23617;SDS011;18207;32.078;34.818;2022-08-19T02:17:24;1.88;;;1.77;;
23617;SDS011;18207;32.078;34.818;2022-08-19T02:19:55;2.10;;;2.00;;
23617;SDS011;18207;32.078;34.818;2022-08-19T02:22:26;2.08;;;1.98;;
23617;SDS011;18207;32.078;34.818;2022-08-19T02:24:59;2.15;;;2.05;;
23617;SDS011;18207;32.078;34.818;2022-08-19T02:27:31;2.45;;;2.25;;
23617;SDS011;18207;32.078;34.818;2022-08-19T02:30:04;2.10;;;2.00;;
23617;SDS011;18207;32.078;34.818;2022-08-19T02:32:40;2.33;;;2.13;;
23617;SDS011;18207;32.078;34.818;2022-08-19T02:35:11;2.15;;;2.05;;
23617;SDS011;18207;32.078;34.818;2022-08-19T02:37:43;2.00;;;1.90;;
23617;SDS011;18207;32.078;34.818;2022-08-19T02:40:33;2.10;;;2.00;;
23617;SDS011;18207;32.078;34.818;2022-08-19T02:43:04;1.88;;;1.77;;
23617;SDS011;18207;32.078;34.818;2022-08-19T02:45:37;2.25;;;2.15;;
23617;SDS011;18207;32.078;34.818;2022-08-19T02:48:08;2.40;;;2.20;;
23617;SDS011;18207;32.078;34.818;2022-08-19T02:50:47;2.20;;;2.10;;
23617;SDS011;18207;32.078;34.818;2022-08-19T02:53:22;2.15;;;2.05;;
23617;SDS011;18207;32.078;34.818;2022-08-19T02:55:57;2.20;;;2.10;;
23617;SDS011;18207;32.078;34.818;2022-08-19T02:58:28;2.38;;;2.17;;
23617;SDS011;18207;32.078;34.818;2022-08-19T03:00:59;2.00;;;1.90;;
23617;SDS011;18207;32.078;34.818;2022-08-19T03:03:30;2.05;;;1.95;;
23617;SDS011;18207;32.078;34.818;2022-08-19T03:06:08;1.92;;;1.83;;
23617;SDS011;18207;32.078;34.818;2022-08-19T03:08:45;2.05;;;1.95;;
23617;SDS011;18207;32.078;34.818;2022-08-19T03:11:19;1.88;;;1.73;;
23617;SDS011;18207;32.078;34.818;2022-08-19T03:13:53;2.05;;;1.95;;
23617;SDS011;18207;32.078;34.818;2022-08-19T03:16:25;2.05;;;1.95;;
23617;SDS011;18207;32.078;34.818;2022-08-19T03:19:00;2.15;;;2.03;;
23617;SDS011;18207;32.078;34.818;2022-08-19T03:21:32;2.30;;;2.20;;
23617;SDS011;18207;32.078;34.818;2022-08-19T03:24:05;1.83;;;1.75;;
23617;SDS011;18207;32.078;34.818;2022-08-19T03:26:41;2.10;;;2.00;;
23617;SDS011;18207;32.078;34.818;2022-08-19T03:29:25;2.40;;;2.30;;
23617;SDS011;18207;32.078;34.818;2022-08-19T03:31:58;2.40;;;1.95;;
23617;SDS011;18207;32.078;34.818;2022-08-19T03:34:30;2.15;;;2.05;;
23617;SDS011;18207;32.078;34.818;2022-08-19T03:37:05;2.25;;;2.15;;
23617;SDS011;18207;32.078;34.818;2022-08-19T03:39:39;2.30;;;2.20;;
23617;SDS011;18207;32.078;34.818;2022-08-19T03:42:13;2.50;;;2.30;;
23617;SDS011;18207;32.078;34.818;2022-08-19T03:45:04;2.08;;;1.98;;
23617;SDS011;18207;32.078;34.818;2022-08-19T03:47:37;2.30;;;2.20;;
23617;SDS011;18207;32.078;34.818;2022-08-19T03:50:08;2.30;;;2.20;;
23617;SDS011;18207;32.078;34.818;2022-08-19T03:52:39;2.33;;;2.22;;
23617;SDS011;18207;32.078;34.818;2022-08-19T03:55:12;1.90;;;1.80;;
23617;SDS011;18207;32.078;34.818;2022-08-19T03:57:45;2.55;;;2.42;;
23617;SDS011;18207;32.078;34.818;2022-08-19T04:00:15;2.05;;;1.90;;
23617;SDS011;18207;32.078;34.818;2022-08-19T04:02:47;2.45;;;2.25;;
23617;SDS011;18207;32.078;34.818;2022-08-19T04:05:26;2.00;;;1.90;;
23617;SDS011;18207;32.078;34.818;2022-08-19T04:07:58;2.08;;;1.98;;
23617;SDS011;18207;32.078;34.818;2022-08-19T04:10:28;2.28;;;2.10;;
23617;SDS011;18207;32.078;34.818;2022-08-19T04:13:00;2.28;;;2.17;;
23617;SDS011;18207;32.078;34.818;2022-08-19T04:15:32;2.40;;;2.20;;
23617;SDS011;18207;32.078;34.818;2022-08-19T04:18:07;2.30;;;2.20;;
23617;SDS011;18207;32.078;34.818;2022-08-19T04:20:39;2.22;;;2.13;;
23617;SDS011;18207;32.078;34.818;2022-08-19T04:23:11;2.30;;;2.20;;
23617;SDS011;18207;32.078;34.818;2022-08-19T04:25:43;2.45;;;2.35;;
23617;SDS011;18207;32.078;34.818;2022-08-19T04:28:16;2.25;;;2.15;;
23617;SDS011;18207;32.078;34.818;2022-08-19T04:30:48;2.38;;;2.28;;
23617;SDS011;18207;32.078;34.818;2022-08-19T04:33:22;2.15;;;2.05;;
23617;SDS011;18207;32.078;34.818;2022-08-19T04:35:54;2.25;;;2.15;;
23617;SDS011;18207;32.078;34.818;2022-08-19T04:38:27;2.95;;;2.17;;
23617;SDS011;18207;32.078;34.818;2022-08-19T04:40:57;2.08;;;1.98;;
23617;SDS011;18207;32.078;34.818;2022-08-19T04:43:47;2.30;;;2.20;;
23617;SDS011;18207;32.078;34.818;2022-08-19T04:46:18;2.25;;;2.10;;
23617;SDS011;18207;32.078;34.818;2022-08-19T04:49:07;2.40;;;2.25;;
23617;SDS011;18207;32.078;34.818;2022-08-19T04:51:40;2.30;;;2.10;;
23617;SDS011;18207;32.078;34.818;2022-08-19T04:54:13;1.98;;;1.88;;
23617;SDS011;18207;32.078;34.818;2022-08-19T04:57:04;2.20;;;1.90;;
23617;SDS011;18207;32.078;34.818;2022-08-19T04:59:39;2.30;;;2.17;;
23617;SDS011;18207;32.078;34.818;2022-08-19T05:02:11;2.15;;;2.05;;
23617;SDS011;18207;32.078;34.818;2022-08-19T05:04:42;2.10;;;2.00;;
23617;SDS011;18207;32.078;34.818;2022-08-19T05:07:13;2.22;;;2.05;;
23617;SDS011;18207;32.078;34.818;2022-08-19T05:09:44;2.10;;;2.00;;
23617;SDS011;18207;32.078;34.818;2022-08-19T05:12:24;2.28;;;2.08;;
23617;SDS011;18207;32.078;34.818;2022-08-19T05:14:58;2.30;;;2.10;;
23617;SDS011;18207;32.078;34.818;2022-08-19T05:17:28;2.08;;;1.98;;
23617;SDS011;18207;32.078;34.818;2022-08-19T05:20:05;2.03;;;1.92;;
23617;SDS011;18207;32.078;34.818;2022-08-19T05:22:54;2.13;;;2.00;;
23617;SDS011;18207;32.078;34.818;2022-08-19T05:25:25;2.17;;;2.08;;
23617;SDS011;18207;32.078;34.818;2022-08-19T05:27:55;2.38;;;2.28;;
23617;SDS011;18207;32.078;34.818;2022-08-19T05:30:28;2.30;;;2.20;;
23617;SDS011;18207;32.078;34.818;2022-08-19T05:33:12;2.00;;;1.90;;
23617;SDS011;18207;32.078;34.818;2022-08-19T05:35:43;1.92;;;1.83;;
23617;SDS011;18207;32.078;34.818;2022-08-19T05:38:15;2.10;;;2.00;;
23617;SDS011;18207;32.078;34.818;2022-08-19T05:40:47;2.10;;;2.00;;
23617;SDS011;18207;32.078;34.818;2022-08-19T05:43:17;2.40;;;2.30;;
23617;SDS011;18207;32.078;34.818;2022-08-19T05:45:50;2.03;;;1.92;;
23617;SDS011;18207;32.078;34.818;2022-08-19T05:48:21;2.25;;;2.10;;
23617;SDS011;18207;32.078;34.818;2022-08-19T05:50:51;2.13;;;2.03;;
23617;SDS011;18207;32.078;34.818;2022-08-19T05:53:22;2.85;;;1.90;;
23617;SDS011;18207;32.078;34.818;2022-08-19T05:55:52;1.95;;;1.85;;
23617;SDS011;18207;32.078;34.818;2022-08-19T05:58:24;2.20;;;2.10;;
23617;SDS011;18207;32.078;34.818;2022-08-19T06:00:58;2.10;;;2.00;;
23617;SDS011;18207;32.078;34.818;2022-08-19T06:03:32;2.40;;;2.20;;
23617;SDS011;18207;32.078;34.818;2022-08-19T06:06:04;2.10;;;2.00;;
23617;SDS011;18207;32.078;34.818;2022-08-19T06:08:37;2.40;;;2.30;;
23617;SDS011;18207;32.078;34.818;2022-08-19T06:11:14;2.30;;;2.20;;
23617;SDS011;18207;32.078;34.818;2022-08-19T06:13:50;2.45;;;2.35;;
23617;SDS011;18207;32.078;34.818;2022-08-19T06:16:27;2.65;;;2.50;;
23617;SDS011;18207;32.078;34.818;2022-08-19T06:19:03;2.35;;;2.25;;
23617;SDS011;18207;32.078;34.818;2022-08-19T06:21:39;2.83;;;2.63;;
23617;SDS011;18207;32.078;34.818;2022-08-19T06:24:15;2.35;;;2.25;;
23617;SDS011;18207;32.078;34.818;2022-08-19T06:26:50;2.42;;;2.33;;
23617;SDS011;18207;32.078;34.818;2022-08-19T06:29:28;2.40;;;2.20;;
23617;SDS011;18207;32.078;34.818;2022-08-19T06:32:02;2.58;;;2.38;;
23617;SDS011;18207;32.078;34.818;2022-08-19T06:34:33;2.70;;;2.50;;
23617;SDS011;18207;32.078;34.818;2022-08-19T06:37:05;2.20;;;2.10;;
23617;SDS011;18207;32.078;34.818;2022-08-19T06:39:36;2.33;;;2.22;;
23617;SDS011;18207;32.078;34.818;2022-08-19T06:42:10;2.40;;;2.20;;
23617;SDS011;18207;32.078;34.818;2022-08-19T06:44:44;2.38;;;2.28;;
23617;SDS011;18207;32.078;34.818;2022-08-19T06:47:21;2.40;;;2.30;;
23617;SDS011;18207;32.078;34.818;2022-08-19T06:49:54;2.50;;;2.33;;
23617;SDS011;18207;32.078;34.818;2022-08-19T06:52:31;2.30;;;2.20;;
23617;SDS011;18207;32.078;34.818;2022-08-19T06:55:04;2.50;;;2.30;;
23617;SDS011;18207;32.078;34.818;2022-08-19T06:57:36;2.50;;;2.30;;
23617;SDS011;18207;32.078;34.818;2022-08-19T07:00:07;2.40;;;2.20;;
23617;SDS011;18207;32.078;34.818;2022-08-19T07:02:42;2.08;;;1.98;;
23617;SDS011;18207;32.078;34.818;2022-08-19T07:05:21;2.00;;;1.90;;
23617;SDS011;18207;32.078;34.818;2022-08-19T07:07:51;2.20;;;2.10;;
23617;SDS011;18207;32.078;34.818;2022-08-19T07:10:30;2.33;;;2.17;;
23617;SDS011;18207;32.078;34.818;2022-08-19T07:13:02;2.30;;;2.20;;
23617;SDS011;18207;32.078;34.818;2022-08-19T07:15:33;2.00;;;1.90;;
23617;SDS011;18207;32.078;34.818;2022-08-19T07:18:08;2.20;;;2.10;;
23617;SDS011;18207;32.078;34.818;2022-08-19T07:20:39;2.15;;;2.05;;
23617;SDS011;18207;32.078;34.818;2022-08-19T07:23:10;2.03;;;1.92;;
23617;SDS011;18207;32.078;34.818;2022-08-19T07:25:42;2.20;;;2.10;;
23617;SDS011;18207;32.078;34.818;2022-08-19T07:28:18;2.22;;;2.13;;
23617;SDS011;18207;32.078;34.818;2022-08-19T07:30:50;1.98;;;1.88;;
23617;SDS011;18207;32.078;34.818;2022-08-19T07:33:23;2.10;;;2.00;;
23617;SDS011;18207;32.078;34.818;2022-08-19T07:35:54;2.03;;;1.92;;
23617;SDS011;18207;32.078;34.818;2022-08-19T07:38:25;2.03;;;1.92;;
23617;SDS011;18207;32.078;34.818;2022-08-19T07:40:57;2.03;;;1.92;;
23617;SDS011;18207;32.078;34.818;2022-08-19T07:43:28;1.85;;;1.75;;
23617;SDS011;18207;32.078;34.818;2022-08-19T07:46:00;2.05;;;1.95;;
23617;SDS011;18207;32.078;34.818;2022-08-19T07:48:34;1.92;;;1.83;;
23617;SDS011;18207;32.078;34.818;2022-08-19T07:51:05;1.77;;;1.73;;
23617;SDS011;18207;32.078;34.818;2022-08-19T07:53:54;1.80;;;1.70;;
23617;SDS011;18207;32.078;34.818;2022-08-19T07:56:25;1.90;;;1.80;;
23617;SDS011;18207;32.078;34.818;2022-08-19T07:58:56;1.92;;;1.83;;
23617;SDS011;18207;32.078;34.818;2022-08-19T08:01:27;1.88;;;1.77;;
23617;SDS011;18207;32.078;34.818;2022-08-19T08:04:09;1.92;;;1.83;;
23617;SDS011;18207;32.078;34.818;2022-08-19T08:06:57;2.00;;;1.90;;
23617;SDS011;18207;32.078;34.818;2022-08-19T08:09:45;2.13;;;2.03;;
23617;SDS011;18207;32.078;34.818;2022-08-19T08:12:17;2.00;;;1.90;;
23617;SDS011;18207;32.078;34.818;2022-08-19T08:15:01;2.13;;;2.03;;
23617;SDS011;18207;32.078;34.818;2022-08-19T08:17:38;2.10;;;2.00;;
23617;SDS011;18207;32.078;34.818;2022-08-19T08:20:19;2.13;;;2.03;;
23617;SDS011;18207;32.078;34.818;2022-08-19T08:22:51;2.13;;;2.03;;
23617;SDS011;18207;32.078;34.818;2022-08-19T08:25:38;2.20;;;2.10;;
23617;SDS011;18207;32.078;34.818;2022-08-19T08:28:09;2.30;;;2.20;;
23617;SDS011;18207;32.078;34.818;2022-08-19T08:30:46;2.17;;;2.08;;
23617;SDS011;18207;32.078;34.818;2022-08-19T08:33:21;2.40;;;2.30;;
23617;SDS011;18207;32.078;34.818;2022-08-19T08:36:02;2.10;;;2.00;;
23617;SDS011;18207;32.078;34.818;2022-08-19T08:38:35;2.20;;;2.00;;
23617;SDS011;18207;32.078;34.818;2022-08-19T08:41:09;2.33;;;2.13;;
23617;SDS011;18207;32.078;34.818;2022-08-19T08:43:53;2.17;;;2.08;;
23617;SDS011;18207;32.078;34.818;2022-08-19T08:46:26;2.20;;;2.10;;
23617;SDS011;18207;32.078;34.818;2022-08-19T08:49:11;2.00;;;1.90;;
23617;SDS011;18207;32.078;34.818;2022-08-19T08:52:03;2.20;;;2.05;;
23617;SDS011;18207;32.078;34.818;2022-08-19T08:54:43;2.05;;;1.95;;
23617;SDS011;18207;32.078;34.818;2022-08-19T08:57:23;2.00;;;1.90;;
23617;SDS011;18207;32.078;34.818;2022-08-19T09:00:07;2.60;;;2.40;;
23617;SDS011;18207;32.078;34.818;2022-08-19T09:02:44;2.30;;;2.20;;
23617;SDS011;18207;32.078;34.818;2022-08-19T09:05:16;2.60;;;2.50;;
23617;SDS011;18207;32.078;34.818;2022-08-19T09:07:56;2.30;;;2.17;;
23617;SDS011;18207;32.078;34.818;2022-08-19T09:10:36;2.20;;;2.10;;
23617;SDS011;18207;32.078;34.818;2022-08-19T09:13:14;2.20;;;2.10;;
23617;SDS011;18207;32.078;34.818;2022-08-19T09:16:04;2.42;;;2.33;;
23617;SDS011;18207;32.078;34.818;2022-08-19T09:18:41;2.40;;;2.20;;
23617;SDS011;18207;32.078;34.818;2022-08-19T09:21:16;2.08;;;1.98;;
23617;SDS011;18207;32.078;34.818;2022-08-19T09:23:57;2.08;;;1.88;;
23617;SDS011;18207;32.078;34.818;2022-08-19T09:26:29;1.95;;;1.85;;
23617;SDS011;18207;32.078;34.818;2022-08-19T09:29:18;1.85;;;1.75;;
23617;SDS011;18207;32.078;34.818;2022-08-19T09:31:49;1.90;;;1.80;;
23617;SDS011;18207;32.078;34.818;2022-08-19T09:34:21;2.10;;;2.00;;
23617;SDS011;18207;32.078;34.818;2022-08-19T09:36:52;2.00;;;1.90;;
23617;SDS011;18207;32.078;34.818;2022-08-19T09:39:27;1.88;;;1.77;;
23617;SDS011;18207;32.078;34.818;2022-08-19T09:42:01;1.98;;;1.88;;
23617;SDS011;18207;32.078;34.818;2022-08-19T09:44:45;2.00;;;1.90;;
23617;SDS011;18207;32.078;34.818;2022-08-19T09:47:16;1.85;;;1.77;;
23617;SDS011;18207;32.078;34.818;2022-08-19T09:49:48;1.77;;;1.70;;
23617;SDS011;18207;32.078;34.818;2022-08-19T09:52:20;1.80;;;1.70;;
23617;SDS011;18207;32.078;34.818;2022-08-19T09:55:00;1.90;;;1.80;;
23617;SDS011;18207;32.078;34.818;2022-08-19T09:57:33;2.08;;;1.98;;
23617;SDS011;18207;32.078;34.818;2022-08-19T10:00:05;1.95;;;1.85;;
23617;SDS011;18207;32.078;34.818;2022-08-19T10:02:39;1.70;;;1.60;;
23617;SDS011;18207;32.078;34.818;2022-08-19T10:05:11;1.83;;;1.73;;
23617;SDS011;18207;32.078;34.818;2022-08-19T10:07:58;1.67;;;1.58;;
23617;SDS011;18207;32.078;34.818;2022-08-19T10:10:40;1.67;;;1.58;;
23617;SDS011;18207;32.078;34.818;2022-08-19T10:13:13;1.65;;;1.55;;
23617;SDS011;18207;32.078;34.818;2022-08-19T10:15:47;1.58;;;1.50;;
23617;SDS011;18207;32.078;34.818;2022-08-19T10:18:21;2.00;;;1.90;;
23617;SDS011;18207;32.078;34.818;2022-08-19T10:21:02;1.90;;;1.80;;
23617;SDS011;18207;32.078;34.818;2022-08-19T10:23:37;1.90;;;1.80;;
23617;SDS011;18207;32.078;34.818;2022-08-19T10:26:15;2.00;;;1.90;;
23617;SDS011;18207;32.078;34.818;2022-08-19T10:28:52;1.83;;;1.73;;
23617;SDS011;18207;32.078;34.818;2022-08-19T10:31:25;1.50;;;1.50;;
23617;SDS011;18207;32.078;34.818;2022-08-19T10:34:18;1.60;;;1.50;;
23617;SDS011;18207;32.078;34.818;2022-08-19T10:36:54;1.70;;;1.60;;
23617;SDS011;18207;32.078;34.818;2022-08-19T10:39:27;1.90;;;1.80;;
23617;SDS011;18207;32.078;34.818;2022-08-19T10:42:10;1.75;;;1.65;;
23617;SDS011;18207;32.078;34.818;2022-08-19T10:44:43;1.95;;;1.65;;
23617;SDS011;18207;32.078;34.818;2022-08-19T10:47:17;1.80;;;1.70;;
23617;SDS011;18207;32.078;34.818;2022-08-19T10:49:51;1.88;;;1.77;;
23617;SDS011;18207;32.078;34.818;2022-08-19T10:52:41;1.77;;;1.67;;
23617;SDS011;18207;32.078;34.818;2022-08-19T10:55:16;1.80;;;1.70;;
23617;SDS011;18207;32.078;34.818;2022-08-19T10:58:13;1.60;;;1.50;;
23617;SDS011;18207;32.078;34.818;2022-08-19T11:00:52;1.63;;;1.63;;
23617;SDS011;18207;32.078;34.818;2022-08-19T11:03:27;1.90;;;1.80;;
23617;SDS011;18207;32.078;34.818;2022-08-19T11:05:58;1.67;;;1.58;;
23617;SDS011;18207;32.078;34.818;2022-08-19T11:08:30;1.75;;;1.65;;
23617;SDS011;18207;32.078;34.818;2022-08-19T11:11:02;1.70;;;1.60;;
23617;SDS011;18207;32.078;34.818;2022-08-19T11:13:36;1.60;;;1.50;;
23617;SDS011;18207;32.078;34.818;2022-08-19T11:16:10;1.90;;;1.80;;
23617;SDS011;18207;32.078;34.818;2022-08-19T11:18:43;1.60;;;1.50;;
23617;SDS011;18207;32.078;34.818;2022-08-19T11:21:19;2.00;;;1.90;;
23617;SDS011;18207;32.078;34.818;2022-08-19T11:23:56;1.80;;;1.70;;
23617;SDS011;18207;32.078;34.818;2022-08-19T11:26:30;1.98;;;1.88;;
23617;SDS011;18207;32.078;34.818;2022-08-19T11:29:05;1.90;;;1.80;;
23617;SDS011;18207;32.078;34.818;2022-08-19T11:31:39;2.10;;;2.00;;
23617;SDS011;18207;32.078;34.818;2022-08-19T11:34:12;2.10;;;1.90;;
23617;SDS011;18207;32.078;34.818;2022-08-19T11:36:47;1.80;;;1.70;;
23617;SDS011;18207;32.078;34.818;2022-08-19T11:39:20;1.80;;;1.70;;
23617;SDS011;18207;32.078;34.818;2022-08-19T11:41:51;1.92;;;1.80;;
23617;SDS011;18207;32.078;34.818;2022-08-19T11:44:24;1.98;;;1.88;;
23617;SDS011;18207;32.078;34.818;2022-08-19T11:47:02;2.00;;;1.90;;
23617;SDS011;18207;32.078;34.818;2022-08-19T11:49:34;1.77;;;1.67;;
23617;SDS011;18207;32.078;34.818;2022-08-19T11:52:05;1.80;;;1.70;;
23617;SDS011;18207;32.078;34.818;2022-08-19T11:54:36;2.13;;;1.90;;
23617;SDS011;18207;32.078;34.818;2022-08-19T11:57:06;1.42;;;1.40;;
23617;SDS011;18207;32.078;34.818;2022-08-19T11:59:40;1.63;;;1.52;;
23617;SDS011;18207;32.078;34.818;2022-08-19T12:02:10;1.50;;;1.40;;
23617;SDS011;18207;32.078;34.818;2022-08-19T12:04:41;1.67;;;1.58;;
23617;SDS011;18207;32.078;34.818;2022-08-19T12:07:11;1.17;;;1.17;;
23617;SDS011;18207;32.078;34.818;2022-08-19T12:09:42;1.35;;;1.33;;
23617;SDS011;18207;32.078;34.818;2022-08-19T12:12:14;1.55;;;1.45;;
23617;SDS011;18207;32.078;34.818;2022-08-19T12:14:46;1.50;;;1.40;;
23617;SDS011;18207;32.078;34.818;2022-08-19T12:17:23;1.60;;;1.50;;
23617;SDS011;18207;32.078;34.818;2022-08-19T12:19:55;1.40;;;1.30;;
23617;SDS011;18207;32.078;34.818;2022-08-19T12:22:26;1.60;;;1.50;;
23617;SDS011;18207;32.078;34.818;2022-08-19T12:24:57;1.08;;;1.08;;
23617;SDS011;18207;32.078;34.818;2022-08-19T12:27:28;1.15;;;1.15;;
23617;SDS011;18207;32.078;34.818;2022-08-19T12:30:10;1.05;;;1.05;;
23617;SDS011;18207;32.078;34.818;2022-08-19T12:32:43;1.25;;;1.15;;
23617;SDS011;18207;32.078;34.818;2022-08-19T12:35:14;1.40;;;1.30;;
23617;SDS011;18207;32.078;34.818;2022-08-19T12:37:48;1.80;;;1.70;;
23617;SDS011;18207;32.078;34.818;2022-08-19T12:40:23;1.38;;;1.27;;
23617;SDS011;18207;32.078;34.818;2022-08-19T12:42:53;1.20;;;1.20;;
23617;SDS011;18207;32.078;34.818;2022-08-19T12:45:27;1.85;;;1.40;;
23617;SDS011;18207;32.078;34.818;2022-08-19T12:47:59;1.40;;;1.30;;
23617;SDS011;18207;32.078;34.818;2022-08-19T12:50:51;1.40;;;1.30;;
23617;SDS011;18207;32.078;34.818;2022-08-19T12:53:22;1.33;;;1.23;;
23617;SDS011;18207;32.078;34.818;2022-08-19T12:55:56;1.40;;;1.30;;
23617;SDS011;18207;32.078;34.818;2022-08-19T12:58:28;1.17;;;1.13;;
23617;SDS011;18207;32.078;34.818;2022-08-19T13:01:08;1.58;;;1.45;;
23617;SDS011;18207;32.078;34.818;2022-08-19T13:03:44;1.40;;;1.30;;
23617;SDS011;18207;32.078;34.818;2022-08-19T13:06:16;1.45;;;1.38;;
23617;SDS011;18207;32.078;34.818;2022-08-19T13:08:47;1.50;;;1.40;;
23617;SDS011;18207;32.078;34.818;2022-08-19T13:11:24;1.60;;;1.50;;
23617;SDS011;18207;32.078;34.818;2022-08-19T13:13:59;1.58;;;1.30;;
23617;SDS011;18207;32.078;34.818;2022-08-19T13:16:33;1.55;;;1.45;;
23617;SDS011;18207;32.078;34.818;2022-08-19T13:19:05;1.52;;;1.42;;
23617;SDS011;18207;32.078;34.818;2022-08-19T13:21:35;1.90;;;1.58;;
23617;SDS011;18207;32.078;34.818;2022-08-19T13:24:08;1.10;;;1.10;;
23617;SDS011;18207;32.078;34.818;2022-08-19T13:26:39;1.52;;;1.35;;
23617;SDS011;18207;32.078;34.818;2022-08-19T13:29:11;1.50;;;1.40;;
23617;SDS011;18207;32.078;34.818;2022-08-19T13:32:10;1.40;;;1.30;;
23617;SDS011;18207;32.078;34.818;2022-08-19T13:34:57;1.50;;;1.40;;
23617;SDS011;18207;32.078;34.818;2022-08-19T13:37:28;1.40;;;1.30;;
23617;SDS011;18207;32.078;34.818;2022-08-19T13:40:13;1.13;;;1.13;;
23617;SDS011;18207;32.078;34.818;2022-08-19T13:42:49;1.20;;;1.10;;
23617;SDS011;18207;32.078;34.818;2022-08-19T13:45:24;1.38;;;1.27;;
23617;SDS011;18207;32.078;34.818;2022-08-19T13:48:00;1.23;;;1.20;;
23617;SDS011;18207;32.078;34.818;2022-08-19T13:50:37;1.15;;;1.13;;
23617;SDS011;18207;32.078;34.818;2022-08-19T13:53:10;1.10;;;1.10;;
23617;SDS011;18207;32.078;34.818;2022-08-19T13:55:42;1.30;;;1.20;;
23617;SDS011;18207;32.078;34.818;2022-08-19T13:58:13;1.15;;;1.15;;
23617;SDS011;18207;32.078;34.818;2022-08-19T14:00:45;1.40;;;1.30;;
23617;SDS011;18207;32.078;34.818;2022-08-19T14:03:18;1.20;;;1.10;;
23617;SDS011;18207;32.078;34.818;2022-08-19T14:05:50;1.17;;;1.17;;
23617;SDS011;18207;32.078;34.818;2022-08-19T14:08:21;1.10;;;1.10;;
23617;SDS011;18207;32.078;34.818;2022-08-19T14:10:52;1.13;;;1.13;;
23617;SDS011;18207;32.078;34.818;2022-08-19T14:13:23;1.98;;;1.40;;
23617;SDS011;18207;32.078;34.818;2022-08-19T14:15:54;1.48;;;1.38;;
23617;SDS011;18207;32.078;34.818;2022-08-19T14:18:27;1.42;;;1.35;;
23617;SDS011;18207;32.078;34.818;2022-08-19T14:20:58;1.98;;;1.80;;
23617;SDS011;18207;32.078;34.818;2022-08-19T14:23:28;2.00;;;1.90;;
23617;SDS011;18207;32.078;34.818;2022-08-19T14:26:03;1.70;;;1.60;;
23617;SDS011;18207;32.078;34.818;2022-08-19T14:28:36;1.60;;;1.50;;
23617;SDS011;18207;32.078;34.818;2022-08-19T14:31:08;1.77;;;1.67;;
23617;SDS011;18207;32.078;34.818;2022-08-19T14:33:41;1.60;;;1.50;;
23617;SDS011;18207;32.078;34.818;2022-08-19T14:36:12;1.42;;;1.35;;
23617;SDS011;18207;32.078;34.818;2022-08-19T14:38:44;1.75;;;1.50;;
23617;SDS011;18207;32.078;34.818;2022-08-19T14:41:17;1.50;;;1.40;;
23617;SDS011;18207;32.078;34.818;2022-08-19T14:43:51;1.25;;;1.20;;
23617;SDS011;18207;32.078;34.818;2022-08-19T14:46:24;1.23;;;1.13;;
23617;SDS011;18207;32.078;34.818;2022-08-19T14:48:59;1.52;;;1.40;;
23617;SDS011;18207;32.078;34.818;2022-08-19T14:51:35;1.27;;;1.25;;
23617;SDS011;18207;32.078;34.818;2022-08-19T14:54:05;1.33;;;1.23;;
23617;SDS011;18207;32.078;34.818;2022-08-19T14:56:36;1.08;;;1.08;;
23617;SDS011;18207;32.078;34.818;2022-08-19T14:59:10;1.30;;;1.25;;
23617;SDS011;18207;32.078;34.818;2022-08-19T15:01:41;1.33;;;1.23;;
23617;SDS011;18207;32.078;34.818;2022-08-19T15:04:13;1.35;;;1.25;;
23617;SDS011;18207;32.078;34.818;2022-08-19T15:06:44;1.20;;;1.10;;
23617;SDS011;18207;32.078;34.818;2022-08-19T15:09:15;1.33;;;1.23;;
23617;SDS011;18207;32.078;34.818;2022-08-19T15:11:45;1.33;;;1.23;;
23617;SDS011;18207;32.078;34.818;2022-08-19T15:14:17;1.40;;;1.30;;
23617;SDS011;18207;32.078;34.818;2022-08-19T15:16:47;1.63;;;1.20;;